createdAt,value
2017-09-30T00:01:34.213Z,0
2017-09-30T00:06:39.946Z,0
2017-09-30T00:11:45.351Z,0
2017-09-30T00:16:50.415Z,0
2017-09-30T00:21:55.477Z,0
2017-09-30T00:27:00.874Z,0
2017-09-30T00:32:05.939Z,0
2017-09-30T00:37:11.340Z,0
2017-09-30T00:42:16.411Z,0
2017-09-30T00:47:21.470Z,0
2017-09-30T00:52:26.869Z,0
2017-09-30T00:57:32.272Z,0
2017-09-30T01:02:37.333Z,0
2017-09-30T01:07:43.067Z,0
2017-09-30T01:12:48.131Z,0
2017-09-30T01:17:53.535Z,0
2017-09-30T01:22:57.924Z,0
2017-09-30T01:28:03.321Z,0
2017-09-30T01:33:08.717Z,0
2017-09-30T01:38:43.298Z,0
2017-09-30T01:43:49.032Z,0
2017-09-30T01:48:54.432Z,0
2017-09-30T01:53:59.494Z,0
2017-09-30T01:59:04.558Z,0
2017-09-30T02:04:09.287Z,0
2017-09-30T02:09:14.689Z,0
2017-09-30T02:14:19.756Z,0
2017-09-30T02:19:24.484Z,0
2017-09-30T02:24:29.212Z,0
2017-09-30T02:29:33.940Z,0
2017-09-30T02:34:39.003Z,0
2017-09-30T02:39:44.068Z,0
2017-09-30T02:44:49.800Z,0
2017-09-30T02:49:55.200Z,0
2017-09-30T02:55:00.262Z,0
2017-09-30T03:00:05.330Z,0
2017-09-30T03:05:10.396Z,0
2017-09-30T03:10:15.458Z,0
2017-09-30T03:15:20.856Z,0
2017-09-30T03:20:25.917Z,0
2017-09-30T03:25:30.650Z,0
2017-09-30T03:30:36.049Z,0
2017-09-30T03:35:40.444Z,0
2017-09-30T03:40:45.503Z,0
2017-09-30T03:45:50.242Z,0
2017-09-30T03:50:54.969Z,0
2017-09-30T03:55:59.700Z,0
2017-09-30T04:01:05.429Z,0
2017-09-30T04:06:09.829Z,0
2017-09-30T04:11:14.565Z,0
2017-09-30T04:16:19.630Z,0
2017-09-30T04:21:24.028Z,0
2017-09-30T04:26:29.425Z,0
2017-09-30T04:31:34.832Z,0
2017-09-30T04:36:40.239Z,0
2017-09-30T04:41:45.312Z,0
2017-09-30T04:46:50.391Z,0
2017-09-30T04:51:55.798Z,0
2017-09-30T04:57:01.533Z,0
2017-09-30T05:02:06.258Z,0
2017-09-30T05:07:11.663Z,1
2017-09-30T05:12:17.064Z,1
2017-09-30T05:17:22.843Z,1
2017-09-30T05:22:27.571Z,4
2017-09-30T05:27:32.633Z,6
2017-09-30T05:32:38.031Z,12
2017-09-30T05:37:43.428Z,18
2017-09-30T05:42:48.492Z,23
2017-09-30T05:47:54.224Z,27
2017-09-30T05:52:59.624Z,14
2017-09-30T05:58:04.352Z,15
2017-09-30T06:03:09.423Z,21
2017-09-30T06:08:15.156Z,44
2017-09-30T06:13:19.893Z,46
2017-09-30T06:18:25.288Z,36
2017-09-30T06:23:30.360Z,32
2017-09-30T06:28:36.094Z,34
2017-09-30T06:33:42.166Z,33
2017-09-30T06:38:47.565Z,36
2017-09-30T06:43:53.301Z,38
2017-09-30T06:48:59.043Z,57
2017-09-30T06:54:03.774Z,59
2017-09-30T06:59:09.174Z,51
2017-09-30T07:04:14.569Z,65
2017-09-30T07:09:19.967Z,85
2017-09-30T07:14:25.777Z,133
2017-09-30T07:19:30.554Z,244
2017-09-30T07:24:35.957Z,394
2017-09-30T07:29:41.696Z,470
2017-09-30T07:34:47.101Z,426
2017-09-30T07:39:51.827Z,550
2017-09-30T07:44:56.223Z,317
2017-09-30T07:50:00.961Z,302
2017-09-30T07:55:06.031Z,391
2017-09-30T08:00:11.435Z,383
2017-09-30T08:05:16.179Z,442
2017-09-30T08:10:21.479Z,533
2017-09-30T08:15:27.205Z,723
2017-09-30T08:20:32.589Z,674
2017-09-30T08:25:38.093Z,918
2017-09-30T08:30:43.840Z,566
2017-09-30T08:35:47.911Z,521
2017-09-30T08:40:54.037Z,425
2017-09-30T08:45:58.526Z,427
2017-09-30T08:51:04.482Z,401
2017-09-30T08:56:09.568Z,513
2017-09-30T09:01:14.294Z,508
2017-09-30T09:06:19.387Z,608
2017-09-30T09:11:25.220Z,821
2017-09-30T09:16:30.310Z,758
2017-09-30T09:21:35.719Z,550
2017-09-30T09:26:41.462Z,395
2017-09-30T09:31:46.905Z,414
2017-09-30T09:36:52.369Z,358
2017-09-30T09:41:57.768Z,564
2017-09-30T09:47:02.834Z,621
2017-09-30T09:52:08.570Z,525
2017-09-30T09:57:13.632Z,508
2017-09-30T10:02:19.033Z,448
2017-09-30T10:07:24.772Z,227
2017-09-30T10:12:30.841Z,365
2017-09-30T10:17:36.290Z,250
2017-09-30T10:22:41.017Z,351
2017-09-30T10:27:46.751Z,256
2017-09-30T10:32:52.151Z,363
2017-09-30T10:37:57.905Z,322
2017-09-30T10:43:03.321Z,393
2017-09-30T10:48:08.488Z,381
2017-09-30T10:53:13.948Z,440
2017-09-30T10:58:19.351Z,441
2017-09-30T11:03:24.530Z,461
2017-09-30T11:08:29.606Z,486
2017-09-30T11:13:35.026Z,527
2017-09-30T11:18:40.095Z,573
2017-09-30T11:23:45.493Z,463
2017-09-30T11:28:50.932Z,623
2017-09-30T11:33:56.672Z,642
2017-09-30T11:39:02.569Z,571
2017-09-30T11:44:07.353Z,476
2017-09-30T11:49:11.762Z,486
2017-09-30T11:54:16.835Z,634
2017-09-30T11:59:22.239Z,639
2017-09-30T12:04:27.981Z,626
2017-09-30T12:09:33.377Z,544
2017-09-30T12:14:38.443Z,476
2017-09-30T12:19:44.190Z,533
2017-09-30T12:24:49.926Z,534
2017-09-30T12:29:54.326Z,577
2017-09-30T12:34:59.394Z,673
2017-09-30T12:40:04.461Z,715
2017-09-30T12:45:10.205Z,660
2017-09-30T12:50:15.599Z,733
2017-09-30T12:55:20.004Z,779
2017-09-30T13:00:24.402Z,732
2017-09-30T13:05:29.474Z,752
2017-09-30T13:10:35.214Z,791
2017-09-30T13:15:39.945Z,469
2017-09-30T13:20:45.677Z,501
2017-09-30T13:25:51.471Z,556
2017-09-30T13:30:56.549Z,609
2017-09-30T13:36:02.048Z,588
2017-09-30T13:41:07.463Z,445
2017-09-30T13:46:12.552Z,417
2017-09-30T13:51:17.664Z,417
2017-09-30T13:56:22.739Z,390
2017-09-30T14:01:28.157Z,469
2017-09-30T14:06:32.900Z,488
2017-09-30T14:11:38.324Z,411
2017-09-30T14:16:43.746Z,400
2017-09-30T14:21:49.522Z,420
2017-09-30T14:26:54.599Z,242
2017-09-30T14:31:59.679Z,216
2017-09-30T14:37:04.757Z,266
2017-09-30T14:42:10.198Z,314
2017-09-30T14:47:15.337Z,250
2017-09-30T14:52:20.462Z,127
2017-09-30T14:57:25.236Z,80
2017-09-30T15:02:30.629Z,57
2017-09-30T15:07:36.415Z,71
2017-09-30T15:12:41.498Z,95
2017-09-30T15:17:46.907Z,114
2017-09-30T15:22:51.668Z,160
2017-09-30T15:27:57.100Z,119
2017-09-30T15:33:01.841Z,118
2017-09-30T15:38:06.919Z,121
2017-09-30T15:43:11.988Z,170
2017-09-30T15:48:17.545Z,230
2017-09-30T15:53:22.293Z,280
2017-09-30T15:58:26.695Z,241
2017-09-30T16:03:31.808Z,184
2017-09-30T16:08:36.952Z,165
2017-09-30T16:13:41.715Z,152
2017-09-30T16:18:47.153Z,122
2017-09-30T16:23:52.554Z,76
2017-09-30T16:28:57.618Z,49
2017-09-30T16:34:02.688Z,29
2017-09-30T16:39:07.751Z,24
2017-09-30T16:44:12.480Z,15
2017-09-30T16:49:17.211Z,11
2017-09-30T16:54:22.613Z,8
2017-09-30T16:59:28.025Z,4
2017-09-30T17:04:33.427Z,2
2017-09-30T17:09:39.412Z,1
2017-09-30T17:14:45.237Z,1
2017-09-30T17:19:50.650Z,1
2017-09-30T17:24:55.384Z,0
2017-09-30T17:30:00.802Z,0
2017-09-30T17:35:06.419Z,0
2017-09-30T17:40:11.817Z,0
2017-09-30T17:45:16.547Z,0
2017-09-30T17:50:21.612Z,0
2017-09-30T17:55:26.689Z,0
2017-09-30T18:00:32.483Z,0
2017-09-30T18:05:37.927Z,0
2017-09-30T18:10:43.682Z,0
2017-09-30T18:15:49.087Z,0
2017-09-30T18:20:54.835Z,0
2017-09-30T18:26:00.243Z,0
2017-09-30T18:31:05.654Z,0
2017-09-30T18:36:11.058Z,0
2017-09-30T18:41:16.469Z,0
2017-09-30T18:46:22.213Z,0
2017-09-30T18:51:27.688Z,0
2017-09-30T18:56:32.765Z,0
2017-09-30T19:01:37.839Z,0
2017-09-30T19:06:43.582Z,0
2017-09-30T19:11:48.657Z,0
2017-09-30T19:16:54.088Z,0
2017-09-30T19:21:59.497Z,0
2017-09-30T19:27:04.572Z,0
2017-09-30T19:32:10.308Z,0
2017-09-30T19:37:16.050Z,0
2017-09-30T19:42:21.120Z,0
2017-09-30T19:47:25.878Z,0
2017-09-30T19:52:30.976Z,0
2017-09-30T19:57:36.068Z,0
2017-09-30T20:02:40.470Z,0
2017-09-30T20:07:45.550Z,0
2017-09-30T20:12:51.638Z,0
2017-09-30T20:17:57.055Z,0
2017-09-30T20:23:02.455Z,0
2017-09-30T20:28:07.534Z,0
2017-09-30T20:33:12.943Z,0
2017-09-30T20:38:18.032Z,0
2017-09-30T20:43:23.444Z,0
2017-09-30T20:48:29.195Z,0
2017-09-30T20:53:34.273Z,0
2017-09-30T20:58:39.355Z,0
2017-09-30T21:03:44.764Z,0
2017-09-30T21:08:50.214Z,0
2017-09-30T21:13:55.291Z,0
2017-09-30T21:19:00.368Z,0
2017-09-30T21:24:05.774Z,0
2017-09-30T21:29:11.282Z,3
2017-09-30T21:34:17.351Z,0
2017-09-30T21:39:23.247Z,0
2017-09-30T21:44:28.322Z,0
2017-09-30T21:49:33.391Z,0
2017-09-30T21:54:38.467Z,0
2017-09-30T21:59:43.549Z,0
2017-09-30T22:04:48.947Z,0
2017-09-30T22:09:54.682Z,0
2017-09-30T22:14:59.420Z,0
2017-09-30T22:20:05.159Z,0
2017-09-30T22:25:10.605Z,0
2017-09-30T22:30:16.338Z,0
2017-09-30T22:35:21.407Z,0
2017-09-30T22:40:26.812Z,0
2017-09-30T22:45:32.542Z,0
2017-09-30T22:50:37.604Z,0
2017-09-30T22:55:43.675Z,0
2017-09-30T23:00:49.410Z,0
2017-09-30T23:05:54.812Z,0
2017-09-30T23:10:59.206Z,0
2017-09-30T23:16:04.608Z,0
2017-09-30T23:21:09.671Z,0
2017-09-30T23:26:14.401Z,0
2017-09-30T23:31:20.131Z,0
2017-09-30T23:36:24.869Z,0
2017-09-30T23:41:29.944Z,0
2017-09-30T23:46:35.007Z,0
2017-09-30T23:51:39.739Z,0
2017-09-30T23:56:45.473Z,0
